Time;durP1;ratioP1;P1;durP2;ratioP2;P2;SDS_P1;SDS_P2;PMS_P1;PMS_P2;Temp;Humidity;BMP_temperature;BMP_pressure;BME280_temperature;BME280_humidity;BME280_pressure;Samples;Min_cycle;Max_cycle;Signal;HPM_P1;HPM_P2
2022/07/20 00:00:38;;;;;;;25.00;16.40;;;25.50;99.90;;;;;;5072285;28;20225;-55
2022/07/20 00:03:10;;;;;;;28.57;17.33;;;25.40;99.90;;;;;;5072323;28;20225;-57
2022/07/20 00:05:39;;;;;;;30.87;17.50;;;25.30;99.90;;;;;;5104963;28;20280;-57
2022/07/20 00:08:08;;;;;;;35.70;18.77;;;25.20;99.90;;;;;;5071159;28;20199;-56
2022/07/20 00:13:24;;;;;;;33.73;18.33;;;25.10;99.90;;;;;;5074754;28;20235;-56
2022/07/20 00:15:52;;;;;;;30.40;18.70;;;25.00;99.90;;;;;;5074669;28;20275;-56
2022/07/20 00:18:22;;;;;;;30.20;18.67;;;24.90;99.90;;;;;;5074441;28;20189;-56
2022/07/20 00:20:50;;;;;;;33.63;19.07;;;24.80;99.90;;;;;;5075637;28;20583;-57
2022/07/20 00:23:19;;;;;;;33.60;19.23;;;24.70;99.90;;;;;;5075691;28;20656;-56
2022/07/20 00:25:47;;;;;;;29.13;19.20;;;24.60;99.90;;;;;;5075857;28;20664;-56
2022/07/20 00:28:15;;;;;;;32.33;19.80;;;24.60;99.90;;;;;;5075778;28;20674;-56
2022/07/20 00:30:46;;;;;;;31.07;19.03;;;24.50;99.90;;;;;;5075846;28;20188;-57
2022/07/20 00:33:14;;;;;;;32.13;20.33;;;24.40;99.90;;;;;;5075535;28;20283;-57
2022/07/20 00:35:44;;;;;;;35.33;20.60;;;24.30;99.90;;;;;;5075465;28;20287;-56
2022/07/20 00:38:14;;;;;;;36.13;20.90;;;24.30;99.90;;;;;;5075696;28;20651;-58
2022/07/20 00:40:42;;;;;;;39.17;21.90;;;24.20;99.90;;;;;;5074325;28;20220;-56
2022/07/20 00:43:11;;;;;;;31.53;20.83;;;24.10;99.90;;;;;;5075476;28;20275;-57
2022/07/20 00:45:40;;;;;;;32.10;20.67;;;24.00;99.90;;;;;;5059247;28;20204;-56
2022/07/20 00:48:08;;;;;;;36.63;22.17;;;24.00;99.90;;;;;;5055613;28;20193;-57
2022/07/20 00:50:37;;;;;;;32.27;21.60;;;24.00;99.90;;;;;;5072177;28;20193;-57
2022/07/20 00:53:08;;;;;;;32.80;21.70;;;23.90;99.90;;;;;;5075226;28;20203;-56
2022/07/20 00:55:38;;;;;;;41.50;22.77;;;23.90;99.90;;;;;;5075129;28;20204;-56
2022/07/20 00:58:06;;;;;;;39.60;22.40;;;23.80;99.90;;;;;;5075313;28;20624;-57
2022/07/20 01:00:34;;;;;;;34.70;21.90;;;23.80;99.90;;;;;;5073225;28;20261;-56
2022/07/20 01:03:04;;;;;;;35.77;22.03;;;23.70;99.90;;;;;;5075150;28;20231;-57
2022/07/20 01:05:51;;;;;;;37.60;22.17;;;23.70;99.90;;;;;;5075300;28;20212;-56
2022/07/20 01:08:21;;;;;;;34.70;22.37;;;23.60;99.90;;;;;;5074659;28;20224;-56
2022/07/20 01:10:50;;;;;;;34.80;23.17;;;23.60;99.90;;;;;;5074982;28;20261;-57
2022/07/20 01:13:19;;;;;;;34.33;22.70;;;23.50;99.90;;;;;;5074610;28;20196;-56
2022/07/20 01:15:47;;;;;;;43.27;22.73;;;23.50;99.90;;;;;;5064051;28;20571;-56
2022/07/20 01:18:16;;;;;;;35.73;22.70;;;23.40;99.90;;;;;;5054790;28;20648;-56
2022/07/20 01:20:47;;;;;;;38.80;22.27;;;23.40;99.90;;;;;;5066105;28;20549;-56
2022/07/20 01:23:17;;;;;;;35.70;22.63;;;23.40;99.90;;;;;;5069231;28;20624;-56
2022/07/20 01:25:46;;;;;;;36.33;23.33;;;23.30;99.90;;;;;;5067190;28;20669;-56
2022/07/20 01:28:16;;;;;;;42.13;23.17;;;23.30;99.90;;;;;;5074173;28;20196;-56
2022/07/20 01:30:44;;;;;;;33.37;22.63;;;23.30;99.90;;;;;;5074420;28;20658;-56
2022/07/20 01:33:12;;;;;;;36.70;23.03;;;23.20;99.90;;;;;;5074365;28;20192;-57
2022/07/20 01:35:42;;;;;;;42.63;23.93;;;23.20;99.90;;;;;;5074202;28;20275;-56
2022/07/20 01:38:11;;;;;;;39.13;23.43;;;23.10;99.90;;;;;;5074333;28;20242;-56
2022/07/20 01:40:41;;;;;;;40.40;23.87;;;23.10;99.90;;;;;;5074133;28;20210;-56
2022/07/20 01:43:09;;;;;;;41.40;24.33;;;23.10;99.90;;;;;;5074172;28;20192;-56
2022/07/20 01:45:38;;;;;;;40.13;24.43;;;23.00;99.90;;;;;;5072745;28;20214;-56
2022/07/20 01:48:07;;;;;;;40.57;24.10;;;23.00;99.90;;;;;;5074018;28;20218;-56
2022/07/20 01:50:35;;;;;;;37.23;24.33;;;23.00;99.90;;;;;;5073929;28;20196;-57
2022/07/20 01:53:04;;;;;;;34.33;23.00;;;22.90;99.90;;;;;;5073754;28;20212;-56
2022/07/20 01:55:33;;;;;;;43.43;25.70;;;22.90;99.90;;;;;;5073772;28;20218;-56
2022/07/20 01:58:03;;;;;;;41.53;25.87;;;22.90;99.90;;;;;;5073958;28;20211;-56
2022/07/20 02:00:32;;;;;;;41.13;24.30;;;22.90;99.90;;;;;;5073697;28;20215;-57
2022/07/20 02:03:28;;;;;;;37.33;23.73;;;22.80;99.90;;;;;;5073317;28;20196;-56
2022/07/20 02:05:56;;;;;;;41.70;25.83;;;22.80;99.90;;;;;;5105545;28;20199;-56
2022/07/20 02:08:25;;;;;;;40.13;24.80;;;22.70;99.90;;;;;;5074172;28;20200;-57
2022/07/20 02:10:53;;;;;;;42.50;24.40;;;22.70;99.90;;;;;;5072358;28;20610;-56
2022/07/20 02:13:23;;;;;;;37.23;24.43;;;22.70;99.90;;;;;;5073301;28;20198;-56
2022/07/20 02:18:38;;;;;;;43.83;24.73;;;22.70;99.90;;;;;;5072302;28;20176;-56
2022/07/20 02:21:07;;;;;;;43.10;24.40;;;22.60;99.90;;;;;;5073317;28;20299;-56
2022/07/20 02:23:35;;;;;;;43.93;26.07;;;22.60;99.90;;;;;;5071966;28;20223;-57
2022/07/20 02:26:04;;;;;;;43.60;25.83;;;22.60;99.90;;;;;;5073431;28;20656;-56
2022/07/20 02:28:34;;;;;;;44.43;26.63;;;22.50;99.90;;;;;;5073037;28;20552;-56
2022/07/20 02:31:03;;;;;;;38.83;24.30;;;22.50;99.90;;;;;;5056767;28;20276;-56
2022/07/20 02:33:32;;;;;;;44.03;26.53;;;22.50;99.90;;;;;;5052544;28;20197;-56
2022/07/20 02:36:00;;;;;;;39.07;24.77;;;22.50;99.90;;;;;;5063923;28;20713;-56
2022/07/20 02:38:29;;;;;;;43.57;25.70;;;22.50;99.90;;;;;;5073204;28;20254;-56
2022/07/20 02:40:58;;;;;;;40.33;25.23;;;22.50;99.90;;;;;;5071846;28;20239;-56
2022/07/20 02:43:26;;;;;;;44.47;25.30;;;22.40;99.90;;;;;;5072962;28;20195;-56
2022/07/20 02:45:56;;;;;;;39.33;25.60;;;22.40;99.90;;;;;;5072959;28;20242;-56
2022/07/20 02:48:24;;;;;;;41.13;26.63;;;22.30;99.90;;;;;;5072271;28;20207;-56
2022/07/20 02:50:53;;;;;;;46.07;27.00;;;22.30;99.90;;;;;;5072363;28;20180;-56
2022/07/20 02:53:22;;;;;;;39.03;25.70;;;22.30;99.90;;;;;;5071996;28;20254;-56
2022/07/20 02:55:54;;;;;;;41.53;26.40;;;22.20;99.90;;;;;;5072320;28;20196;-56
2022/07/20 02:58:26;;;;;;;41.60;25.67;;;22.10;99.90;;;;;;5071168;28;20192;-56
2022/07/20 03:00:57;;;;;;;46.10;25.57;;;22.00;99.90;;;;;;5071273;28;20249;-57
2022/07/20 03:03:27;;;;;;;44.33;24.73;;;22.00;99.90;;;;;;5070839;28;20199;-56
2022/07/20 03:05:56;;;;;;;40.43;24.43;;;21.90;99.90;;;;;;5072650;28;20196;-56
2022/07/20 03:08:25;;;;;;;45.77;25.30;;;21.90;99.90;;;;;;5072919;28;20200;-56
2022/07/20 03:10:53;;;;;;;38.43;24.47;;;21.80;99.90;;;;;;5072897;28;20233;-56
2022/07/20 03:13:24;;;;;;;38.87;24.37;;;21.80;99.90;;;;;;5055131;28;20301;-56
2022/07/20 03:15:53;;;;;;;43.77;24.57;;;21.80;99.90;;;;;;5063994;28;20634;-56
2022/07/20 03:18:23;;;;;;;38.63;24.50;;;21.80;99.90;;;;;;5072982;28;20194;-56
2022/07/20 03:20:54;;;;;;;41.40;23.83;;;21.80;99.90;;;;;;5058309;28;20220;-56
2022/07/20 03:23:22;;;;;;;37.20;23.47;;;21.70;99.90;;;;;;5059276;28;20233;-56
2022/07/20 03:25:51;;;;;;;41.87;24.97;;;21.70;99.90;;;;;;5072586;28;20222;-56
2022/07/20 03:28:20;;;;;;;36.50;23.33;;;21.60;99.90;;;;;;5072585;28;20286;-56
2022/07/20 03:30:49;;;;;;;37.57;23.33;;;21.60;99.90;;;;;;5072525;28;20242;-56
2022/07/20 03:33:17;;;;;;;38.03;22.90;;;21.60;99.90;;;;;;5072525;28;20188;-56
2022/07/20 03:35:46;;;;;;;39.13;22.77;;;21.50;99.90;;;;;;5070616;28;20732;-55
2022/07/20 03:38:15;;;;;;;33.90;21.70;;;21.50;99.90;;;;;;5060429;28;20282;-56
2022/07/20 03:40:46;;;;;;;35.17;22.23;;;21.40;99.90;;;;;;5071167;28;20283;-56
2022/07/20 03:43:14;;;;;;;34.73;21.60;;;21.40;99.90;;;;;;5072036;28;20706;-56
2022/07/20 03:45:42;;;;;;;33.50;21.00;;;21.40;99.90;;;;;;5075671;28;20720;-57
2022/07/20 03:48:11;;;;;;;33.13;20.57;;;21.30;99.90;;;;;;5073233;28;20204;-56
2022/07/20 03:50:39;;;;;;;32.47;21.00;;;21.30;99.90;;;;;;5060807;28;20257;-55
2022/07/20 03:53:09;;;;;;;32.00;20.80;;;21.20;99.90;;;;;;5075809;28;20238;-57
2022/07/20 03:55:41;;;;;;;35.27;20.90;;;21.20;99.90;;;;;;5076266;28;20270;-57
2022/07/20 03:58:10;;;;;;;34.17;20.73;;;21.10;99.90;;;;;;5061620;28;20197;-56
2022/07/20 04:00:39;;;;;;;28.57;18.73;;;21.10;99.90;;;;;;5055931;28;20188;-56
2022/07/20 04:03:15;;;;;;;35.07;19.87;;;21.10;99.90;;;;;;5071435;28;20555;-56
2022/07/20 04:05:43;;;;;;;28.47;18.70;;;21.10;99.90;;;;;;5074683;28;20710;-56
2022/07/20 04:08:13;;;;;;;27.00;17.93;;;21.00;99.90;;;;;;5076128;28;20188;-56
2022/07/20 04:10:42;;;;;;;25.90;17.33;;;21.00;99.90;;;;;;5076114;28;20634;-57
2022/07/20 04:13:15;;;;;;;26.07;17.57;;;21.00;99.90;;;;;;5074773;28;20191;-56
2022/07/20 04:15:43;;;;;;;32.00;16.43;;;21.10;99.90;;;;;;5074775;28;20597;-56
2022/07/20 04:18:12;;;;;;;26.30;17.23;;;21.10;99.90;;;;;;5073852;28;20593;-56
2022/07/20 04:20:40;;;;;;;24.17;16.00;;;21.10;99.90;;;;;;5076017;28;20256;-56
2022/07/20 04:23:09;;;;;;;21.57;15.27;;;21.10;99.90;;;;;;5074297;28;20204;-56
2022/07/20 04:25:39;;;;;;;23.67;15.57;;;21.10;99.90;;;;;;5075737;28;20206;-56
2022/07/20 04:28:07;;;;;;;22.67;15.30;;;21.10;99.90;;;;;;5075772;28;20291;-55
2022/07/20 04:30:35;;;;;;;27.07;14.10;;;21.20;99.90;;;;;;5108271;28;20618;-56
2022/07/20 04:33:04;;;;;;;27.03;14.77;;;21.20;99.90;;;;;;5074289;28;20192;-56
2022/07/20 04:35:32;;;;;;;19.37;14.20;;;21.30;99.90;;;;;;5081442;28;20188;-57
2022/07/20 04:38:01;;;;;;;21.20;14.07;;;21.30;99.90;;;;;;5095762;28;20199;-57
2022/07/20 04:40:31;;;;;;;27.60;14.43;;;21.30;99.90;;;;;;5095778;28;20244;-56
2022/07/20 04:43:05;;;;;;;21.77;13.90;;;21.30;99.90;;;;;;5082592;28;20212;-57
2022/07/20 04:45:34;;;;;;;23.63;14.97;;;21.30;99.90;;;;;;5062186;28;20205;-56
2022/07/20 04:48:02;;;;;;;22.80;13.77;;;21.30;99.90;;;;;;5075451;28;20217;-56
2022/07/20 04:50:31;;;;;;;23.23;14.37;;;21.40;99.90;;;;;;5075264;28;20280;-56
2022/07/20 04:53:00;;;;;;;17.17;13.17;;;21.40;99.90;;;;;;5075369;28;20275;-56
2022/07/20 04:55:28;;;;;;;25.07;13.53;;;21.40;99.90;;;;;;5074756;28;20184;-56
2022/07/20 04:57:57;;;;;;;20.00;13.83;;;21.50;99.90;;;;;;5075008;28;20258;-56
2022/07/20 05:00:29;;;;;;;19.60;13.23;;;21.50;99.90;;;;;;5073894;28;20284;-56
2022/07/20 05:02:57;;;;;;;22.67;13.60;;;21.50;99.90;;;;;;5074934;28;20574;-56
2022/07/20 05:05:25;;;;;;;18.53;12.80;;;21.60;99.90;;;;;;5074691;28;20275;-56
2022/07/20 05:07:53;;;;;;;18.73;12.90;;;21.60;99.90;;;;;;5074870;28;20228;-56
2022/07/20 05:10:22;;;;;;;22.27;13.30;;;21.60;99.90;;;;;;5073509;28;20699;-56
2022/07/20 05:12:51;;;;;;;20.77;13.27;;;21.60;99.90;;;;;;5074747;28;20242;-56
2022/07/20 05:15:23;;;;;;;20.60;12.83;;;21.70;99.90;;;;;;5074870;28;20200;-56
2022/07/20 05:17:53;;;;;;;26.07;13.27;;;21.70;99.90;;;;;;5074807;28;20265;-56
2022/07/20 05:20:21;;;;;;;21.10;12.27;;;21.70;99.90;;;;;;5073516;28;20219;-56
2022/07/20 05:22:50;;;;;;;16.83;12.80;;;21.80;99.90;;;;;;5074669;28;20307;-57
2022/07/20 05:25:19;;;;;;;24.30;12.07;;;21.80;99.90;;;;;;5074636;28;20902;-56
2022/07/20 05:27:55;;;;;;;20.83;12.67;;;21.90;99.90;;;;;;5074762;28;20242;-56
2022/07/20 05:30:27;;;;;;;17.93;11.60;;;22.00;99.90;;;;;;5074780;28;20185;-57
2022/07/20 05:32:57;;;;;;;19.53;12.50;;;22.10;99.90;;;;;;5056486;28;20628;-55
2022/07/20 05:35:25;;;;;;;21.83;12.17;;;22.10;99.90;;;;;;5066904;28;20263;-56
2022/07/20 05:37:55;;;;;;;18.60;12.33;;;22.20;99.90;;;;;;5074439;28;20198;-56
2022/07/20 05:40:24;;;;;;;16.87;12.83;;;22.20;99.90;;;;;;5061043;28;20213;-57
2022/07/20 05:42:52;;;;;;;16.63;11.67;;;22.30;99.90;;;;;;5061052;28;20307;-56
2022/07/20 05:45:21;;;;;;;17.13;11.57;;;22.50;99.90;;;;;;5074498;28;20192;-57
2022/07/20 05:47:49;;;;;;;19.70;11.77;;;22.60;99.90;;;;;;5074296;28;20223;-56
2022/07/20 05:50:19;;;;;;;20.23;12.20;;;22.80;99.90;;;;;;5074187;28;20188;-56
2022/07/20 05:52:47;;;;;;;12.37;10.90;;;22.90;99.90;;;;;;5074356;28;20196;-57
2022/07/20 05:55:16;;;;;;;16.43;11.47;;;23.20;99.90;;;;;;5073807;28;20279;-56
2022/07/20 05:57:44;;;;;;;21.37;11.80;;;23.30;99.90;;;;;;5073871;28;20548;-56
2022/07/20 06:00:13;;;;;;;19.60;10.63;;;23.40;99.90;;;;;;5073785;28;20564;-57
2022/07/20 06:02:42;;;;;;;18.90;10.70;;;23.40;99.90;;;;;;5073801;28;20711;-57
2022/07/20 06:05:10;;;;;;;14.80;10.33;;;23.40;99.90;;;;;;5073553;28;20754;-57
2022/07/20 06:07:40;;;;;;;17.57;9.60;;;23.40;99.90;;;;;;5072501;28;20233;-56
2022/07/20 06:10:13;;;;;;;14.27;9.97;;;23.30;99.90;;;;;;5062440;28;20202;-58
2022/07/20 06:12:42;;;;;;;16.33;9.50;;;23.30;99.90;;;;;;5055994;28;20276;-56
2022/07/20 06:15:10;;;;;;;16.80;10.17;;;23.00;99.90;;;;;;5067671;28;20635;-56
2022/07/20 06:17:41;;;;;;;16.07;9.63;;;23.00;99.90;;;;;;5061762;28;20228;-56
2022/07/20 06:20:11;;;;;;;11.77;9.37;;;22.80;99.90;;;;;;5053620;28;20601;-57
2022/07/20 06:22:42;;;;;;;14.43;9.33;;;22.70;99.90;;;;;;5053830;28;20267;-56
2022/07/20 06:25:12;;;;;;;14.97;9.50;;;22.70;99.90;;;;;;5073196;28;20288;-56
2022/07/20 06:27:41;;;;;;;18.20;9.77;;;22.80;99.90;;;;;;5072012;28;20929;-57
2022/07/20 06:30:12;;;;;;;13.93;9.83;;;22.90;99.90;;;;;;5073121;28;20192;-56
2022/07/20 06:32:40;;;;;;;15.47;9.50;;;22.90;99.90;;;;;;5073388;28;20250;-56
2022/07/20 06:35:10;;;;;;;20.07;9.50;;;22.80;99.90;;;;;;5073186;28;20254;-56
2022/07/20 06:37:39;;;;;;;19.90;9.87;;;22.70;99.90;;;;;;5073082;28;20278;-55
2022/07/20 06:40:11;;;;;;;11.60;9.13;;;22.60;99.90;;;;;;5071768;28;20196;-56
2022/07/20 06:42:39;;;;;;;15.00;8.87;;;22.60;99.90;;;;;;5073245;28;20650;-55
2022/07/20 06:45:08;;;;;;;15.77;9.37;;;22.50;99.90;;;;;;5073204;28;20287;-56
2022/07/20 06:47:37;;;;;;;15.73;8.37;;;22.50;99.90;;;;;;5071873;28;20207;-55
2022/07/20 06:50:06;;;;;;;12.43;7.97;;;22.30;99.90;;;;;;5073181;28;20551;-57
2022/07/20 06:52:35;;;;;;;12.43;8.63;;;22.20;99.90;;;;;;5072001;28;20192;-56
2022/07/20 06:55:06;;;;;;;9.87;8.23;;;22.20;99.90;;;;;;5073084;28;20192;-56
2022/07/20 06:57:35;;;;;;;14.33;8.60;;;22.10;99.90;;;;;;5071751;28;20241;-56
2022/07/20 07:00:05;;;;;;;13.90;8.80;;;22.00;99.90;;;;;;5073127;28;20715;-56
2022/07/20 07:02:33;;;;;;;14.37;8.30;;;22.00;99.90;;;;;;5071893;28;20539;-56
2022/07/20 07:05:02;;;;;;;14.27;8.30;;;21.90;99.90;;;;;;5072867;28;20685;-56
2022/07/20 07:07:30;;;;;;;14.30;8.83;;;21.90;99.90;;;;;;5072639;28;20234;-56
2022/07/20 07:09:58;;;;;;;16.67;9.30;;;21.80;99.90;;;;;;5072942;28;20290;-56
2022/07/20 07:12:27;;;;;;;15.40;8.67;;;21.60;99.90;;;;;;5073001;28;20200;-56
2022/07/20 07:14:57;;;;;;;16.47;9.40;;;21.40;99.90;;;;;;5068421;28;20232;-56
2022/07/20 07:17:27;;;;;;;15.87;9.83;;;21.40;99.90;;;;;;5051458;28;20220;-57
2022/07/20 07:19:56;;;;;;;14.97;9.03;;;21.30;99.90;;;;;;5052706;28;20189;-57
2022/07/20 07:22:24;;;;;;;15.63;9.83;;;21.20;99.90;;;;;;5052836;28;20277;-55
2022/07/20 07:24:52;;;;;;;16.93;9.60;;;21.10;99.90;;;;;;5070145;28;20216;-57
2022/07/20 07:27:23;;;;;;;16.73;9.73;;;21.00;99.90;;;;;;5105408;28;20211;-57
2022/07/20 07:29:53;;;;;;;13.33;8.93;;;20.90;99.90;;;;;;5072677;28;20200;-57
2022/07/20 07:32:23;;;;;;;14.03;10.00;;;20.90;99.90;;;;;;5072766;28;20188;-56
2022/07/20 07:34:52;;;;;;;15.00;9.57;;;20.90;99.90;;;;;;5064766;28;20197;-56
2022/07/20 07:37:20;;;;;;;14.17;9.10;;;20.80;99.90;;;;;;5067673;28;20253;-57
2022/07/20 07:39:49;;;;;;;14.57;9.33;;;20.80;99.90;;;;;;5072600;28;20283;-56
2022/07/20 07:42:18;;;;;;;15.77;9.80;;;20.70;99.90;;;;;;5072629;28;20249;-57
2022/07/20 07:44:46;;;;;;;13.43;10.03;;;20.80;99.90;;;;;;5072759;28;20589;-56
2022/07/20 07:47:15;;;;;;;10.97;8.90;;;21.00;99.90;;;;;;5072494;28;20278;-57
2022/07/20 07:49:45;;;;;;;16.30;9.43;;;21.00;99.90;;;;;;5071252;28;20636;-57
2022/07/20 07:52:17;;;;;;;16.67;9.77;;;21.00;99.90;;;;;;5072819;28;20196;-57
2022/07/20 07:54:45;;;;;;;15.43;9.53;;;21.00;99.90;;;;;;5071211;28;20643;-56
2022/07/20 07:57:13;;;;;;;12.57;9.10;;;21.20;99.90;;;;;;5072654;28;20247;-56
2022/07/20 07:59:43;;;;;;;15.57;9.60;;;21.60;99.90;;;;;;5072121;28;20207;-57
2022/07/20 08:02:11;;;;;;;15.87;9.30;;;22.00;99.90;;;;;;5071060;28;20195;-57
2022/07/20 08:04:40;;;;;;;14.97;8.60;;;22.70;99.90;;;;;;5072287;28;20214;-57
2022/07/20 08:07:10;;;;;;;14.27;8.57;;;23.50;99.90;;;;;;5072051;28;20281;-57
2022/07/20 08:09:38;;;;;;;14.17;8.37;;;23.60;99.90;;;;;;5072447;28;20212;-56
2022/07/20 08:12:07;;;;;;;15.67;8.53;;;23.20;99.90;;;;;;5072060;28;20219;-57
2022/07/20 08:14:35;;;;;;;13.07;8.40;;;23.00;99.90;;;;;;5070014;28;20240;-56
2022/07/20 08:17:04;;;;;;;12.20;8.50;;;23.00;99.90;;;;;;5062487;28;20202;-57
2022/07/20 08:19:33;;;;;;;16.17;9.03;;;23.30;99.90;;;;;;5070428;28;20279;-56
2022/07/20 08:22:01;;;;;;;14.47;8.40;;;23.40;99.90;;;;;;5052232;28;20280;-57
2022/07/20 08:24:31;;;;;;;13.67;8.90;;;23.70;99.90;;;;;;5052398;28;20370;-56
2022/07/20 08:26:59;;;;;;;11.23;8.63;;;23.80;99.90;;;;;;5061459;28;20208;-57
2022/07/20 08:29:28;;;;;;;11.17;8.87;;;23.80;99.90;;;;;;5072223;28;20258;-57
2022/07/20 08:31:56;;;;;;;14.63;8.87;;;23.60;99.90;;;;;;5074225;28;20193;-57
2022/07/20 08:34:25;;;;;;;14.83;8.53;;;23.40;99.90;;;;;;5075568;28;20196;-57
2022/07/20 08:36:53;;;;;;;14.00;9.03;;;23.30;99.90;;;;;;5075528;28;20211;-57
2022/07/20 08:39:22;;;;;;;13.00;8.20;;;23.20;99.90;;;;;;5075393;28;20725;-56
2022/07/20 08:41:52;;;;;;;12.30;9.50;;;23.00;99.90;;;;;;5075602;28;20717;-56
2022/07/20 08:44:21;;;;;;;14.10;9.00;;;23.00;99.90;;;;;;5075241;28;20315;-56
2022/07/20 08:46:50;;;;;;;14.87;9.07;;;23.00;99.90;;;;;;5074184;28;20207;-57
2022/07/20 08:49:20;;;;;;;15.07;9.60;;;23.00;99.90;;;;;;5075446;28;20192;-56
2022/07/20 08:51:49;;;;;;;14.73;9.50;;;23.00;99.90;;;;;;5075438;28;20191;-57
2022/07/20 08:54:17;;;;;;;16.73;9.63;;;23.00;99.90;;;;;;5062143;28;20219;-56
2022/07/20 08:56:46;;;;;;;11.00;9.03;;;23.00;99.90;;;;;;5075465;28;20199;-56
2022/07/20 08:59:16;;;;;;;12.83;8.83;;;23.20;99.90;;;;;;5075196;28;20196;-55
2022/07/20 09:02:04;;;;;;;13.60;8.63;;;23.20;99.90;;;;;;5061494;28;20205;-56
2022/07/20 09:04:33;;;;;;;17.77;9.53;;;23.20;99.90;;;;;;5075253;28;20219;-56
2022/07/20 09:07:01;;;;;;;16.73;10.40;;;23.20;99.90;;;;;;5070038;28;20232;-56
2022/07/20 09:09:30;;;;;;;17.40;9.57;;;22.90;99.90;;;;;;5067023;28;20200;-56
2022/07/20 09:11:58;;;;;;;19.87;11.13;;;22.60;99.90;;;;;;5075021;28;20188;-56
2022/07/20 09:14:40;;;;;;;21.20;11.00;;;22.30;99.90;;;;;;5074762;28;20239;-56
2022/07/20 09:17:17;;;;;;;17.60;10.40;;;22.00;99.90;;;;;;5055261;28;20197;-57
2022/07/20 09:19:58;;;;;;;15.60;10.20;;;21.90;99.90;;;;;;5071833;28;20196;-55
2022/07/20 09:22:33;;;;;;;16.90;9.70;;;21.90;99.90;;;;;;5074974;28;20232;-56
2022/07/20 09:25:08;;;;;;;15.90;10.57;;;21.90;99.90;;;;;;5074573;28;20222;-56
2022/07/20 09:27:37;;;;;;;16.17;9.77;;;21.80;99.90;;;;;;5074598;28;20222;-56
2022/07/20 09:30:10;;;;;;;17.77;10.37;;;21.80;99.90;;;;;;5074807;28;20199;-56
2022/07/20 09:32:53;;;;;;;15.67;11.20;;;21.90;99.90;;;;;;5074745;28;20620;-57
2022/07/20 09:35:23;;;;;;;13.80;11.30;;;21.90;99.90;;;;;;5073070;28;20233;-56
2022/07/20 09:37:59;;;;;;;21.63;11.00;;;22.00;99.90;;;;;;5074667;28;20187;-56
2022/07/20 09:40:27;;;;;;;16.43;9.80;;;21.90;99.90;;;;;;5074458;28;20235;-57
2022/07/20 09:42:56;;;;;;;14.97;9.70;;;21.80;99.90;;;;;;5074424;28;20195;-56
2022/07/20 09:45:28;;;;;;;20.23;10.80;;;21.70;99.90;;;;;;5074060;28;20294;-57
2022/07/20 09:48:13;;;;;;;18.33;10.77;;;21.80;99.90;;;;;;5074266;28;20198;-56
2022/07/20 09:50:43;;;;;;;15.83;10.33;;;21.80;99.90;;;;;;5073997;28;20192;-57
2022/07/20 09:53:13;;;;;;;13.90;9.70;;;21.80;99.90;;;;;;5074494;28;20536;-56
2022/07/20 09:55:42;;;;;;;13.87;10.53;;;21.80;99.90;;;;;;5073807;28;20192;-56
2022/07/20 09:58:11;;;;;;;18.43;10.07;;;22.30;99.90;;;;;;5072460;28;20232;-57
2022/07/20 10:00:41;;;;;;;13.53;9.33;;;22.90;99.90;;;;;;5067666;28;20204;-56
2022/07/20 10:03:15;;;;;;;15.23;9.43;;;22.80;99.90;;;;;;5068457;28;20202;-57
2022/07/20 10:06:23;;;;;;;14.47;9.53;;;22.60;99.90;;;;;;5073599;28;20235;-56
2022/07/20 10:09:00;;;;;;;19.93;9.90;;;22.40;99.90;;;;;;5072586;28;20569;-56
2022/07/20 10:11:29;;;;;;;17.00;9.70;;;22.20;99.90;;;;;;5073896;28;20192;-56
2022/07/20 10:13:59;;;;;;;13.53;9.23;;;22.00;99.90;;;;;;5073665;28;20224;-56
2022/07/20 10:16:34;;;;;;;13.93;9.70;;;21.80;99.90;;;;;;5073700;28;20688;-56
2022/07/20 10:19:04;;;;;;;17.63;10.00;;;21.90;99.90;;;;;;5073830;28;20187;-56
2022/07/20 10:21:37;;;;;;;14.63;9.90;;;22.10;99.90;;;;;;5073730;28;20550;-56
2022/07/20 10:24:25;;;;;;;23.80;10.17;;;22.10;99.90;;;;;;5073698;28;20270;-57
2022/07/20 10:26:56;;;;;;;17.23;9.60;;;22.10;99.90;;;;;;5061904;28;20216;-57
2022/07/20 10:29:35;;;;;;;14.10;8.97;;;22.70;99.90;;;;;;5072700;28;20181;-57
2022/07/20 10:32:16;;;;;;;17.20;9.40;;;23.20;99.90;;;;;;5072706;28;20648;-56
2022/07/20 10:34:46;;;;;;;12.80;9.33;;;23.60;99.90;;;;;;5072505;28;20205;-56
2022/07/20 10:37:26;;;;;;;15.10;8.77;;;24.40;99.90;;;;;;5071413;28;20287;-57
2022/07/20 10:40:08;;;;;;;13.50;8.13;;;25.50;99.90;;;;;;5073005;28;20652;-56
2022/07/20 10:42:38;;;;;;;12.37;7.97;;;26.20;99.90;;;;;;5073168;28;20200;-57
2022/07/20 10:45:30;;;;;;;13.63;8.90;;;26.80;99.90;;;;;;5073096;28;20272;-56
2022/07/20 10:48:19;;;;;;;15.30;8.95;;;27.30;99.90;;;;;;5053157;28;20276;-56
2022/07/20 10:50:50;;;;;;;11.10;9.05;;;27.40;99.90;;;;;;5058338;28;20272;-56
2022/07/20 10:53:40;;;;;;;11.03;9.80;;;26.50;99.90;;;;;;5072717;28;20206;-56
2022/07/20 10:56:11;;;;;;;14.50;9.97;;;25.60;99.90;;;;;;5050445;28;20201;-56
2022/07/20 10:58:43;;;;;;;15.93;9.43;;;25.20;99.90;;;;;;5056129;28;20196;-56
2022/07/20 11:01:13;;;;;;;16.83;10.03;;;24.60;99.90;;;;;;5071656;28;20691;-56
2022/07/20 11:03:44;;;;;;;15.50;10.43;;;24.50;99.90;;;;;;5073073;28;20262;-56
2022/07/20 11:06:14;;;;;;;15.83;10.23;;;24.60;99.90;;;;;;5072744;28;20228;-56
2022/07/20 11:08:49;;;;;;;16.37;10.40;;;24.70;99.90;;;;;;5071695;28;20227;-57
2022/07/20 11:11:20;;;;;;;17.73;10.60;;;24.90;99.90;;;;;;5072585;28;20663;-57
2022/07/20 11:13:49;;;;;;;17.77;10.43;;;25.50;99.90;;;;;;5072196;28;20240;-56
2022/07/20 11:16:20;;;;;;;15.57;10.07;;;25.70;99.90;;;;;;5072051;28;20216;-57
2022/07/20 11:18:50;;;;;;;17.37;10.50;;;25.50;99.90;;;;;;5072049;28;20199;-57
2022/07/20 11:21:29;;;;;;;14.17;10.17;;;25.30;99.90;;;;;;5058768;28;20207;-57
2022/07/20 11:24:04;;;;;;;16.80;10.70;;;25.10;99.90;;;;;;5104771;28;20184;-57
2022/07/20 11:26:32;;;;;;;17.90;11.10;;;24.90;99.90;;;;;;5071364;28;20243;-57
2022/07/20 11:29:00;;;;;;;13.03;10.13;;;24.90;99.90;;;;;;5072829;28;20512;-57
2022/07/20 11:31:30;;;;;;;18.90;11.60;;;24.70;99.90;;;;;;5072701;28;20192;-57
2022/07/20 11:34:00;;;;;;;16.40;10.77;;;24.50;99.90;;;;;;5072346;28;20202;-57
2022/07/20 11:36:31;;;;;;;18.93;11.20;;;24.40;99.90;;;;;;5064879;28;20289;-56
2022/07/20 11:39:02;;;;;;;17.10;10.60;;;24.20;99.90;;;;;;5066124;28;20268;-56
2022/07/20 11:41:35;;;;;;;17.87;11.13;;;24.10;99.90;;;;;;5061673;28;20281;-57
2022/07/20 11:44:04;;;;;;;18.40;11.07;;;24.00;99.90;;;;;;5072376;28;20671;-56
2022/07/20 11:46:39;;;;;;;15.87;11.07;;;24.00;99.90;;;;;;5072509;28;20310;-56
2022/07/20 11:49:13;;;;;;;18.03;10.80;;;24.00;99.90;;;;;;5072503;28;20279;-56
2022/07/20 11:52:00;;;;;;;17.90;11.00;;;23.90;99.90;;;;;;5072623;28;20267;-56
2022/07/20 11:54:32;;;;;;;17.17;10.77;;;23.80;99.90;;;;;;5072590;28;20214;-56
2022/07/20 11:57:01;;;;;;;17.77;10.70;;;23.70;99.90;;;;;;5072644;28;20181;-57
2022/07/20 11:59:29;;;;;;;16.90;10.90;;;23.70;99.90;;;;;;5072408;28;20218;-56
2022/07/20 12:02:00;;;;;;;16.50;10.23;;;23.80;99.90;;;;;;5072679;28;20185;-56
2022/07/20 12:04:35;;;;;;;15.33;10.10;;;24.00;99.90;;;;;;5071997;28;20241;-56
2022/07/20 12:08:07;;;;;;;17.27;10.73;;;24.20;99.90;;;;;;5074472;28;20449;-56
2022/07/20 12:09:53;;;;;;;18.80;10.87;;;24.40;99.90;;;;;;5075996;28;20199;-56
2022/07/20 12:12:45;;;;;;;18.00;10.87;;;24.60;99.90;;;;;;5076103;28;20202;-57
2022/07/20 12:15:14;;;;;;;20.10;11.27;;;24.90;99.90;;;;;;5076157;28;20207;-56
2022/07/20 12:17:50;;;;;;;14.43;10.60;;;25.00;99.90;;;;;;5075670;28;20279;-56
2022/07/20 12:20:21;;;;;;;22.57;11.90;;;24.90;99.90;;;;;;5054687;28;20207;-56
2022/07/20 12:22:52;;;;;;;20.00;11.60;;;24.80;99.90;;;;;;5056103;28;20181;-56
2022/07/20 12:25:21;;;;;;;18.93;10.93;;;24.50;99.90;;;;;;5065208;28;20261;-57
2022/07/20 12:27:50;;;;;;;18.80;11.60;;;24.50;99.90;;;;;;5075457;28;20247;-56
2022/07/20 12:30:28;;;;;;;18.57;11.57;;;24.30;99.90;;;;;;5075583;28;20277;-57
2022/07/20 12:33:04;;;;;;;17.97;11.67;;;24.10;99.90;;;;;;5075685;28;20243;-56
2022/07/20 12:35:34;;;;;;;18.00;11.03;;;24.10;99.90;;;;;;5075691;28;20510;-57
2022/07/20 12:38:03;;;;;;;17.70;11.07;;;24.00;99.90;;;;;;5075805;28;20698;-55
2022/07/20 12:40:40;;;;;;;19.20;11.23;;;23.90;99.90;;;;;;5075509;28;20624;-57
2022/07/20 12:43:27;;;;;;;24.30;11.90;;;23.90;99.90;;;;;;5067424;28;20278;-56
2022/07/20 12:45:56;;;;;;;18.67;10.47;;;23.80;99.90;;;;;;5055423;28;20285;-56
2022/07/20 12:48:25;;;;;;;21.17;11.47;;;24.00;99.90;;;;;;5058508;28;20283;-56
2022/07/20 12:50:55;;;;;;;16.47;11.40;;;24.30;99.90;;;;;;5074194;28;20296;-56
2022/07/20 12:53:24;;;;;;;16.00;10.40;;;24.70;99.90;;;;;;5075292;28;20190;-57